10NH weather

Clark Heliport
Hampstead, New Hampshire, United States

Public forecast

Using degrees Fahrenheit for public forecast. Weather courtesy of forecast.io.

Closest aviation weather report (METAR) to Clark Heliport

Closest report is Lawrence Municipal Airport, 9.7 nm (18.0 km) SSE. Retrieved 2020/04/05 15:54 UTC (47 minutes ago):

KLWM 051554Z 25003KT 10SM OVC050 10/02 A3007 RMK AO2 SLP182 T01000017

Closest aviation forecast (TAF) to Clark Heliport

Closest forecast is Manchester-Boston Regional Airport, 11.8 nm (21.8 km) WNW. Retrieved 2020/04/05 12:27 UTC (4 hours ago):

TAF KMHT 051124Z 0512/0612 VRB04KT P6SM BKN050 FM051700 18005KT P6SM SCT025 BKN060 FM060200 27005KT P6SM SCT050 FM060800 30005KT P6SM FEW050